createdAt,value
2018-11-14T00:00:42.380Z,93.50
2018-11-14T00:03:17.108Z,93.50
2018-11-14T00:05:52.037Z,93.30
2018-11-14T00:08:26.808Z,93.40
2018-11-14T00:11:01.723Z,93.40
2018-11-14T00:13:36.709Z,93.50
2018-11-14T00:16:11.911Z,93.60
2018-11-14T00:18:47.506Z,93.80
2018-11-14T00:21:22.662Z,93.90
2018-11-14T00:23:57.530Z,94.00
2018-11-14T00:26:32.531Z,93.70
2018-11-14T00:29:08.010Z,93.50
2018-11-14T00:31:42.785Z,93.40
2018-11-14T00:34:17.926Z,93.50
2018-11-14T00:36:52.862Z,93.70
2018-11-14T00:39:27.632Z,93.70
2018-11-14T00:42:02.517Z,93.80
2018-11-14T00:44:38.590Z,93.80
2018-11-14T00:47:14.223Z,93.70
2018-11-14T00:49:49.141Z,93.90
2018-11-14T00:52:23.950Z,94.20
2018-11-14T00:54:58.740Z,94.30
2018-11-14T00:57:33.528Z,94.30
2018-11-14T01:00:12.006Z,94.30
2018-11-14T01:02:47.154Z,94.50
2018-11-14T01:05:22.814Z,94.60
2018-11-14T01:07:57.537Z,94.60
2018-11-14T01:10:32.571Z,94.80
2018-11-14T01:13:07.372Z,94.90
2018-11-14T01:15:42.993Z,94.80
2018-11-14T01:18:17.850Z,94.40
2018-11-14T01:20:52.906Z,94.30
2018-11-14T01:23:28.777Z,94.70
2018-11-14T01:26:03.634Z,94.70
2018-11-14T01:28:39.500Z,95.00
2018-11-14T01:31:14.862Z,94.70
2018-11-14T01:33:50.332Z,95.10
2018-11-14T01:36:24.968Z,94.70
2018-11-14T01:38:59.777Z,94.60
2018-11-14T01:41:35.246Z,94.40
2018-11-14T01:44:10.255Z,94.50
2018-11-14T01:46:45.394Z,94.50
2018-11-14T01:49:20.559Z,94.30
2018-11-14T01:51:55.858Z,93.80
2018-11-14T01:54:31.347Z,94.10
2018-11-14T01:57:06.761Z,94.30
2018-11-14T01:59:41.389Z,94.40
2018-11-14T02:02:16.202Z,94.60
2018-11-14T02:04:51.694Z,94.30
2018-11-14T02:07:26.655Z,94.40
2018-11-14T02:10:02.305Z,95.00
2018-11-14T02:12:37.669Z,95.20
2018-11-14T02:15:14.605Z,95.10
2018-11-14T02:17:49.272Z,94.90
2018-11-14T02:20:24.916Z,94.80
2018-11-14T02:22:59.770Z,94.50
2018-11-14T02:25:34.413Z,94.40
2018-11-14T02:28:10.091Z,94.40
2018-11-14T02:30:45.011Z,94.50
2018-11-14T02:33:19.770Z,94.80
2018-11-14T02:35:54.721Z,94.80
2018-11-14T02:38:30.247Z,94.70
2018-11-14T02:41:05.310Z,94.70
2018-11-14T02:43:40.332Z,95.10
2018-11-14T02:46:15.209Z,95.10
2018-11-14T02:48:49.946Z,95.00
2018-11-14T02:51:26.915Z,95.20
2018-11-14T02:54:02.386Z,95.20
2018-11-14T02:56:37.439Z,95.30
2018-11-14T02:59:12.205Z,95.50
2018-11-14T03:01:47.579Z,95.70
2018-11-14T03:04:22.407Z,95.60
2018-11-14T03:06:57.242Z,95.70
2018-11-14T03:09:32.493Z,95.60
2018-11-14T03:12:07.741Z,95.60
2018-11-14T03:14:42.723Z,95.60
2018-11-14T03:17:17.826Z,95.40
2018-11-14T03:19:53.064Z,95.50
2018-11-14T03:22:28.082Z,95.10
2018-11-14T03:25:02.929Z,95.20
2018-11-14T03:27:38.418Z,95.30
2018-11-14T03:30:16.769Z,95.10
2018-11-14T03:32:51.591Z,94.90
2018-11-14T03:35:30.767Z,94.90
2018-11-14T03:38:06.649Z,94.90
2018-11-14T03:40:42.397Z,94.90
2018-11-14T03:43:17.751Z,95.00
2018-11-14T03:45:53.269Z,95.10
2018-11-14T03:48:28.017Z,95.10
2018-11-14T03:51:02.813Z,94.90
2018-11-14T03:53:37.466Z,94.80
2018-11-14T03:56:12.473Z,94.70
2018-11-14T03:58:47.066Z,94.90
2018-11-14T04:01:22.802Z,95.10
2018-11-14T04:03:57.533Z,95.10
2018-11-14T04:06:32.249Z,95.30
2018-11-14T04:09:10.104Z,95.30
2018-11-14T04:11:45.074Z,95.50
2018-11-14T04:14:20.179Z,95.40
2018-11-14T04:16:54.950Z,95.20
2018-11-14T04:19:36.628Z,95.30
2018-11-14T04:22:12.050Z,95.40
2018-11-14T04:24:46.936Z,95.50
2018-11-14T04:27:21.737Z,95.10
2018-11-14T04:29:56.772Z,95.00
2018-11-14T04:32:31.603Z,95.40
2018-11-14T04:35:08.710Z,95.20
2018-11-14T04:37:43.762Z,95.30
2018-11-14T04:40:20.683Z,95.30
2018-11-14T04:42:56.297Z,95.20
2018-11-14T04:45:31.740Z,95.30
2018-11-14T04:48:07.724Z,95.40
2018-11-14T04:50:43.379Z,95.30
2018-11-14T04:53:18.845Z,95.30
2018-11-14T04:55:53.913Z,95.10
2018-11-14T04:58:29.261Z,95.20
2018-11-14T05:01:04.874Z,95.50
2018-11-14T05:03:40.484Z,96.00
2018-11-14T05:06:15.258Z,96.00
2018-11-14T05:08:51.075Z,96.00
2018-11-14T05:11:25.699Z,95.90
2018-11-14T05:14:00.646Z,96.00
2018-11-14T05:16:35.585Z,95.70
2018-11-14T05:19:10.626Z,95.60
2018-11-14T05:21:45.367Z,95.50
2018-11-14T05:24:22.253Z,95.60
2018-11-14T05:26:57.564Z,95.40
2018-11-14T05:29:32.878Z,95.60
2018-11-14T05:32:07.654Z,95.50
2018-11-14T05:34:43.220Z,95.50
2018-11-14T05:37:17.987Z,95.50
2018-11-14T05:39:53.228Z,95.40
2018-11-14T05:42:28.786Z,95.20
2018-11-14T05:45:04.023Z,95.30
2018-11-14T05:47:38.897Z,95.30
2018-11-14T05:50:16.297Z,95.30
2018-11-14T05:52:51.077Z,95.40
2018-11-14T05:55:26.725Z,95.50
2018-11-14T05:58:01.484Z,95.50
2018-11-14T06:00:36.454Z,95.30
2018-11-14T06:03:11.488Z,95.30
2018-11-14T06:05:47.458Z,95.20
2018-11-14T06:08:22.529Z,95.00
2018-11-14T06:10:58.293Z,95.00
2018-11-14T06:13:33.734Z,95.10
2018-11-14T06:16:08.606Z,95.20
2018-11-14T06:18:43.574Z,95.30
2018-11-14T06:21:18.549Z,95.20
2018-11-14T06:23:53.508Z,95.20
2018-11-14T06:26:28.300Z,95.10
2018-11-14T06:29:03.200Z,95.10
2018-11-14T06:31:38.461Z,95.10
2018-11-14T06:34:13.914Z,95.10
2018-11-14T06:36:48.571Z,95.10
2018-11-14T06:39:30.302Z,94.60
2018-11-14T06:42:05.990Z,94.70
2018-11-14T06:44:40.791Z,94.90
2018-11-14T06:47:16.149Z,95.10
2018-11-14T06:49:50.939Z,95.10
2018-11-14T06:52:25.956Z,95.20
2018-11-14T06:55:01.259Z,95.10
2018-11-14T06:57:36.502Z,95.10
2018-11-14T07:00:15.060Z,95.20
2018-11-14T07:02:50.022Z,95.30
2018-11-14T07:05:24.735Z,95.40
2018-11-14T07:07:59.950Z,95.40
2018-11-14T07:10:36.282Z,95.40
2018-11-14T07:13:12.352Z,95.40
2018-11-14T07:15:47.372Z,95.60
2018-11-14T07:18:22.078Z,96.00
2018-11-14T07:20:57.465Z,96.10
2018-11-14T07:23:32.276Z,95.90
2018-11-14T07:26:07.278Z,96.20
2018-11-14T07:28:42.015Z,95.90
2018-11-14T07:31:17.174Z,95.80
2018-11-14T07:33:52.534Z,95.80
2018-11-14T07:36:27.289Z,95.80
2018-11-14T07:39:03.449Z,96.00
2018-11-14T07:41:39.543Z,95.70
2018-11-14T07:44:14.734Z,95.90
2018-11-14T07:46:49.405Z,95.90
2018-11-14T07:49:24.133Z,95.90
2018-11-14T07:51:59.073Z,96.00
2018-11-14T07:54:33.887Z,96.10
2018-11-14T07:57:09.506Z,95.40
2018-11-14T07:59:44.427Z,96.00
2018-11-14T08:02:20.119Z,95.00
2018-11-14T08:04:55.271Z,95.20
2018-11-14T08:07:30.978Z,94.70
2018-11-14T08:10:08.004Z,94.30
2018-11-14T08:12:42.749Z,95.00
2018-11-14T08:15:18.314Z,94.10
2018-11-14T08:17:53.546Z,94.30
2018-11-14T08:20:29.196Z,93.40
2018-11-14T08:23:04.024Z,93.10
2018-11-14T08:25:38.889Z,92.20
2018-11-14T08:28:14.063Z,92.10
2018-11-14T08:30:48.844Z,91.80
2018-11-14T08:33:23.708Z,90.90
2018-11-14T08:35:58.988Z,90.70
2018-11-14T08:38:33.843Z,90.00
2018-11-14T08:41:08.695Z,87.50
2018-11-14T08:43:43.286Z,85.40
2018-11-14T08:46:18.707Z,82.50
2018-11-14T08:48:54.229Z,80.90
2018-11-14T08:51:29.352Z,81.50
2018-11-14T08:54:04.046Z,79.90
2018-11-14T08:56:39.090Z,77.90
2018-11-14T08:59:15.042Z,75.10
2018-11-14T09:01:50.201Z,72.60
2018-11-14T09:04:25.856Z,70.60
2018-11-14T09:07:01.424Z,67.90
2018-11-14T09:09:36.758Z,67.90
2018-11-14T09:12:12.039Z,66.10
2018-11-14T09:14:47.888Z,64.20
2018-11-14T09:17:23.628Z,63.00
2018-11-14T09:19:59.227Z,61.90
2018-11-14T09:22:34.456Z,61.80
2018-11-14T09:25:13.838Z,62.30
2018-11-14T09:27:49.367Z,64.70
2018-11-14T09:30:25.551Z,66.70
2018-11-14T09:33:01.192Z,63.40
2018-11-14T09:35:36.801Z,62.30
2018-11-14T09:38:12.933Z,61.40
2018-11-14T09:40:48.396Z,59.40
2018-11-14T09:43:24.129Z,58.70
2018-11-14T09:46:00.278Z,58.40
2018-11-14T09:48:36.573Z,57.40
2018-11-14T09:51:12.322Z,56.10
2018-11-14T09:53:48.226Z,54.20
2018-11-14T09:56:23.382Z,52.50
2018-11-14T09:58:59.606Z,53.10
2018-11-14T10:01:35.470Z,52.20
2018-11-14T10:04:11.365Z,52.80
2018-11-14T10:06:47.458Z,52.50
2018-11-14T10:09:22.852Z,50.90
2018-11-14T10:11:58.323Z,50.80
2018-11-14T10:14:33.710Z,51.10
2018-11-14T10:17:09.186Z,50.70
2018-11-14T10:19:44.582Z,50.20
2018-11-14T10:22:19.920Z,51.10
2018-11-14T10:24:55.328Z,49.90
2018-11-14T10:27:30.839Z,50.30
2018-11-14T10:30:08.923Z,49.40
2018-11-14T10:32:45.327Z,50.00
2018-11-14T10:35:20.772Z,49.20
2018-11-14T10:37:56.198Z,47.80
2018-11-14T10:40:31.828Z,47.00
2018-11-14T10:43:07.415Z,46.20
2018-11-14T10:45:42.961Z,46.20
2018-11-14T10:48:18.926Z,46.20
2018-11-14T10:50:54.245Z,45.80
2018-11-14T10:53:30.646Z,44.90
2018-11-14T10:56:07.137Z,44.30
2018-11-14T10:58:41.994Z,44.60
2018-11-14T11:01:22.264Z,44.30
2018-11-14T11:04:03.061Z,43.20
2018-11-14T11:06:43.204Z,43.50
2018-11-14T11:09:23.826Z,43.00
2018-11-14T11:12:04.325Z,43.40
2018-11-14T11:14:44.954Z,42.30
2018-11-14T11:17:26.302Z,42.50
2018-11-14T11:20:01.664Z,43.50
2018-11-14T11:22:36.842Z,44.10
2018-11-14T11:25:11.986Z,43.60
2018-11-14T11:27:47.355Z,43.90
2018-11-14T11:30:22.571Z,43.10
2018-11-14T11:32:57.810Z,42.70
2018-11-14T11:35:33.091Z,43.10
2018-11-14T11:38:08.704Z,42.50
2018-11-14T11:40:44.202Z,42.90
2018-11-14T11:43:19.154Z,42.10
2018-11-14T11:45:54.190Z,42.60
2018-11-14T11:48:29.134Z,43.10
2018-11-14T11:51:05.182Z,43.30
2018-11-14T11:53:40.628Z,43.50
2018-11-14T11:56:15.933Z,42.70
2018-11-14T11:58:50.903Z,42.40
2018-11-14T12:01:26.382Z,43.10
2018-11-14T12:04:01.439Z,42.50
2018-11-14T12:06:37.123Z,41.60
2018-11-14T12:09:13.122Z,42.40
2018-11-14T12:11:48.517Z,41.30
2018-11-14T12:14:23.931Z,41.20
2018-11-14T12:16:59.895Z,42.10
2018-11-14T12:19:35.753Z,40.60
2018-11-14T12:22:11.233Z,40.40
2018-11-14T12:24:46.436Z,40.40
2018-11-14T12:27:21.815Z,40.10
2018-11-14T12:29:57.500Z,40.50
2018-11-14T12:32:33.206Z,41.00
2018-11-14T12:35:10.246Z,41.70
2018-11-14T12:37:45.673Z,41.00
2018-11-14T12:40:21.387Z,40.50
2018-11-14T12:42:56.539Z,39.90
2018-11-14T12:45:31.615Z,40.50
2018-11-14T12:48:07.103Z,39.90
2018-11-14T12:50:42.018Z,39.00
2018-11-14T12:53:17.338Z,39.00
2018-11-14T12:55:52.446Z,39.60
2018-11-14T12:58:27.575Z,39.60
2018-11-14T13:01:03.211Z,39.60
2018-11-14T13:03:38.986Z,40.10
2018-11-14T13:06:14.367Z,40.20
2018-11-14T13:08:49.969Z,39.70
2018-11-14T13:11:25.489Z,40.40
2018-11-14T13:14:00.758Z,40.60
2018-11-14T13:16:35.910Z,40.90
2018-11-14T13:19:11.077Z,39.80
2018-11-14T13:21:46.343Z,40.30
2018-11-14T13:24:21.596Z,40.70
2018-11-14T13:26:56.850Z,39.70
2018-11-14T13:29:32.038Z,39.30
2018-11-14T13:32:07.653Z,40.10
2018-11-14T13:34:42.840Z,40.10
2018-11-14T13:37:18.014Z,39.40
2018-11-14T13:39:52.921Z,38.90
2018-11-14T13:42:27.989Z,38.20
2018-11-14T13:45:03.023Z,38.10
2018-11-14T13:47:39.042Z,39.70
2018-11-14T13:50:19.649Z,39.40
2018-11-14T13:52:55.703Z,39.50
2018-11-14T13:55:30.834Z,39.60
2018-11-14T13:58:06.805Z,39.80
2018-11-14T14:00:41.836Z,39.60
2018-11-14T14:03:16.904Z,39.70
2018-11-14T14:05:52.223Z,39.20
2018-11-14T14:08:27.238Z,38.90
2018-11-14T14:11:02.735Z,39.40
2018-11-14T14:13:42.290Z,41.20
2018-11-14T14:16:18.316Z,42.60
2018-11-14T14:18:53.865Z,42.40
2018-11-14T14:21:29.527Z,42.60
2018-11-14T14:24:05.531Z,44.20
2018-11-14T14:26:41.182Z,45.90
2018-11-14T14:29:16.418Z,46.60
2018-11-14T14:31:51.938Z,45.60
2018-11-14T14:34:27.609Z,44.70
2018-11-14T14:37:03.652Z,45.20
2018-11-14T14:39:39.858Z,46.90
2018-11-14T14:42:16.150Z,48.50
2018-11-14T14:44:51.942Z,50.20
2018-11-14T14:47:27.894Z,52.10
2018-11-14T14:50:03.450Z,53.40
2018-11-14T14:52:39.727Z,54.30
2018-11-14T14:55:18.407Z,55.20
2018-11-14T14:57:53.820Z,55.80
2018-11-14T15:00:29.916Z,56.70
2018-11-14T15:03:05.486Z,57.50
2018-11-14T15:05:40.131Z,58.00
2018-11-14T15:08:15.822Z,58.60
2018-11-14T15:10:50.816Z,60.00
2018-11-14T15:13:25.831Z,60.00
2018-11-14T15:16:00.635Z,60.80
2018-11-14T15:18:35.654Z,61.70
2018-11-14T15:21:10.809Z,61.80
2018-11-14T15:23:45.746Z,63.00
2018-11-14T15:26:20.617Z,63.70
2018-11-14T15:28:55.675Z,64.60
2018-11-14T15:31:31.204Z,65.10
2018-11-14T15:34:07.120Z,65.20
2018-11-14T15:36:42.042Z,65.50
2018-11-14T15:39:17.074Z,65.70
2018-11-14T15:41:51.722Z,66.40
2018-11-14T15:44:26.532Z,66.90
2018-11-14T15:47:01.326Z,67.40
2018-11-14T15:49:36.130Z,68.00
2018-11-14T15:52:11.210Z,67.60
2018-11-14T15:54:46.598Z,68.50
2018-11-14T15:57:21.336Z,68.80
2018-11-14T15:59:56.267Z,69.30
2018-11-14T16:02:31.506Z,69.80
2018-11-14T16:05:07.571Z,70.30
2018-11-14T16:07:43.313Z,70.80
2018-11-14T16:10:19.547Z,71.10
2018-11-14T16:12:54.289Z,71.50
2018-11-14T16:15:32.294Z,71.80
2018-11-14T16:18:07.801Z,71.60
2018-11-14T16:20:42.834Z,71.90
2018-11-14T16:23:17.723Z,72.40
2018-11-14T16:25:52.446Z,72.70
2018-11-14T16:28:28.238Z,73.30
2018-11-14T16:31:03.095Z,73.50
2018-11-14T16:33:37.873Z,74.10
2018-11-14T16:36:12.774Z,75.50
2018-11-14T16:38:47.451Z,75.90
2018-11-14T16:41:22.459Z,75.80
2018-11-14T16:43:57.395Z,76.40
2018-11-14T16:46:32.452Z,76.30
2018-11-14T16:49:07.307Z,74.90
2018-11-14T16:51:42.403Z,75.10
2018-11-14T16:54:17.349Z,75.10
2018-11-14T16:56:52.928Z,75.40
2018-11-14T16:59:28.243Z,75.90
2018-11-14T17:02:03.816Z,76.90
2018-11-14T17:04:38.739Z,77.50
2018-11-14T17:07:13.539Z,78.80
2018-11-14T17:09:48.248Z,79.10
2018-11-14T17:12:22.962Z,78.80
2018-11-14T17:14:57.758Z,79.70
2018-11-14T17:17:32.844Z,77.80
2018-11-14T17:20:08.907Z,78.20
2018-11-14T17:22:44.050Z,79.30
2018-11-14T17:25:19.429Z,79.40
2018-11-14T17:27:54.902Z,80.90
2018-11-14T17:30:30.095Z,80.30
2018-11-14T17:33:05.538Z,80.70
2018-11-14T17:35:41.005Z,81.10
2018-11-14T17:38:16.082Z,80.90
2018-11-14T17:40:50.989Z,81.40
2018-11-14T17:43:26.029Z,81.30
2018-11-14T17:46:00.809Z,82.00
2018-11-14T17:48:35.908Z,82.10
2018-11-14T17:51:10.838Z,82.10
2018-11-14T17:53:45.977Z,82.10
2018-11-14T17:56:21.859Z,81.20
2018-11-14T17:58:57.723Z,82.60
2018-11-14T18:01:32.987Z,82.80
2018-11-14T18:04:08.863Z,83.00
2018-11-14T18:06:43.888Z,83.20
2018-11-14T18:09:19.038Z,83.70
2018-11-14T18:11:53.953Z,83.80
2018-11-14T18:14:29.095Z,83.60
2018-11-14T18:17:04.695Z,84.10
2018-11-14T18:19:39.905Z,83.70
2018-11-14T18:22:15.761Z,84.20
2018-11-14T18:24:50.842Z,84.60
2018-11-14T18:27:25.870Z,84.10
2018-11-14T18:30:00.766Z,85.00
2018-11-14T18:32:37.111Z,84.80
2018-11-14T18:35:15.316Z,85.90
2018-11-14T18:37:51.298Z,86.00
2018-11-14T18:40:29.143Z,86.10
2018-11-14T18:43:04.304Z,86.10
2018-11-14T18:45:39.417Z,85.80
2018-11-14T18:48:21.326Z,86.50
2018-11-14T18:50:56.237Z,86.10
2018-11-14T18:53:31.720Z,85.80
2018-11-14T18:56:06.682Z,86.30
2018-11-14T18:58:42.158Z,87.00
2018-11-14T19:01:17.357Z,86.50
2018-11-14T19:03:52.293Z,86.10
2018-11-14T19:06:27.450Z,86.80
2018-11-14T19:09:02.204Z,87.10
2018-11-14T19:11:43.984Z,87.60
2018-11-14T19:14:18.859Z,87.80
2018-11-14T19:16:54.698Z,87.30
2018-11-14T19:19:29.751Z,87.10
2018-11-14T19:22:05.114Z,87.60
2018-11-14T19:24:40.052Z,88.20
2018-11-14T19:27:15.195Z,88.10
2018-11-14T19:29:50.291Z,88.40
2018-11-14T19:32:25.216Z,88.20
2018-11-14T19:35:00.747Z,88.10
2018-11-14T19:37:35.855Z,89.00
2018-11-14T19:40:13.676Z,88.70
2018-11-14T19:42:49.715Z,88.80
2018-11-14T19:45:26.134Z,89.90
2018-11-14T19:48:01.542Z,88.90
2018-11-14T19:50:37.007Z,89.80
2018-11-14T19:53:12.558Z,89.90
2018-11-14T19:55:47.751Z,90.10
2018-11-14T19:58:23.194Z,89.80
2018-11-14T20:00:58.354Z,90.30
2018-11-14T20:03:33.042Z,91.10
2018-11-14T20:06:08.661Z,91.20
2018-11-14T20:08:43.499Z,91.00
2018-11-14T20:11:18.860Z,90.50
2018-11-14T20:13:53.914Z,90.40
2018-11-14T20:16:28.938Z,90.40
2018-11-14T20:19:07.066Z,90.40
2018-11-14T20:21:41.908Z,90.40
2018-11-14T20:24:17.198Z,90.50
2018-11-14T20:26:52.723Z,90.60
2018-11-14T20:29:27.461Z,91.20
2018-11-14T20:32:02.426Z,91.30
2018-11-14T20:34:37.453Z,91.70
2018-11-14T20:37:12.354Z,91.70
2018-11-14T20:39:47.662Z,92.00
2018-11-14T20:42:22.374Z,92.10
2018-11-14T20:44:57.058Z,92.10
2018-11-14T20:47:32.051Z,92.60
2018-11-14T20:50:11.242Z,92.90
2018-11-14T20:52:47.651Z,93.00
2018-11-14T20:55:29.529Z,92.50
2018-11-14T20:58:04.382Z,92.40
2018-11-14T21:00:39.615Z,92.40
2018-11-14T21:03:15.354Z,92.60
2018-11-14T21:05:50.692Z,92.70
2018-11-14T21:08:26.002Z,93.00
2018-11-14T21:11:01.492Z,93.20
2018-11-14T21:13:36.792Z,93.20
2018-11-14T21:16:11.801Z,93.30
2018-11-14T21:18:47.369Z,93.30
2018-11-14T21:21:22.059Z,93.10
2018-11-14T21:23:57.156Z,92.80
2018-11-14T21:26:31.957Z,92.70
2018-11-14T21:29:07.203Z,92.50
2018-11-14T21:31:42.691Z,92.30
2018-11-14T21:34:17.430Z,91.90
2018-11-14T21:36:52.581Z,91.80
2018-11-14T21:39:27.227Z,91.90
2018-11-14T21:42:01.978Z,92.10
2018-11-14T21:44:37.147Z,92.70
2018-11-14T21:47:12.113Z,92.60
2018-11-14T21:49:46.963Z,92.00
2018-11-14T21:52:21.932Z,91.60
2018-11-14T21:54:57.824Z,91.50
2018-11-14T21:57:33.022Z,91.50
2018-11-14T22:00:12.557Z,91.80
2018-11-14T22:02:48.834Z,91.80
2018-11-14T22:05:24.129Z,92.30
2018-11-14T22:07:58.942Z,91.90
2018-11-14T22:10:33.925Z,92.20
2018-11-14T22:13:08.597Z,92.50
2018-11-14T22:15:43.382Z,92.10
2018-11-14T22:18:18.168Z,91.80
2018-11-14T22:20:53.526Z,91.70
2018-11-14T22:23:29.057Z,92.10
2018-11-14T22:26:04.427Z,92.00
2018-11-14T22:28:40.020Z,92.30
2018-11-14T22:31:14.813Z,93.60
2018-11-14T22:33:49.587Z,92.60
2018-11-14T22:36:24.332Z,92.50
2018-11-14T22:38:59.328Z,92.50
2018-11-14T22:41:35.025Z,92.00
2018-11-14T22:44:10.114Z,92.10
2018-11-14T22:46:44.885Z,92.20
2018-11-14T22:49:19.771Z,92.20
2018-11-14T22:51:54.794Z,92.40
2018-11-14T22:54:30.053Z,92.40
2018-11-14T22:57:05.611Z,92.20
2018-11-14T22:59:40.455Z,92.10
2018-11-14T23:02:15.862Z,91.90
2018-11-14T23:04:51.078Z,92.00
2018-11-14T23:07:25.756Z,92.10
2018-11-14T23:10:00.871Z,91.90
2018-11-14T23:12:35.864Z,91.70
2018-11-14T23:15:11.191Z,91.80
2018-11-14T23:17:46.036Z,91.70
2018-11-14T23:20:21.688Z,91.80
2018-11-14T23:22:56.953Z,92.10
2018-11-14T23:25:32.218Z,92.10
2018-11-14T23:28:06.988Z,91.90
2018-11-14T23:30:41.883Z,91.70
2018-11-14T23:33:17.173Z,91.90
2018-11-14T23:35:51.915Z,91.90
2018-11-14T23:38:27.037Z,91.90
2018-11-14T23:41:01.729Z,91.90
2018-11-14T23:43:36.903Z,91.70
2018-11-14T23:46:11.587Z,91.90
2018-11-14T23:48:46.765Z,91.80
2018-11-14T23:51:21.511Z,91.70
2018-11-14T23:53:57.035Z,91.70
2018-11-14T23:56:31.907Z,91.70
2018-11-14T23:59:06.954Z,91.60
